Time;durP1;ratioP1;P1;durP2;ratioP2;P2;SDS_P1;SDS_P2;PMS_P1;PMS_P2;Temp;Humidity;BMP_temperature;BMP_pressure;BME280_temperature;BME280_humidity;BME280_pressure;Samples;Min_cycle;Max_cycle;Signal;HPM_P1;HPM_P2
2022/05/18 00:00:17;;;;;;;;;5.00;5.00;;;;;25.47;49.04;101525.81;5081561;27;45608;-67
2022/05/18 00:02:42;;;;;;;;;9.00;6.00;;;;;25.39;49.00;101528.88;5069757;28;46541;-67
2022/05/18 00:05:08;;;;;;;;;8.00;5.00;;;;;25.35;50.40;101522.03;5082893;27;45345;-67
2022/05/18 00:07:34;;;;;;;;;7.00;5.67;;;;;25.28;50.30;101526.81;5068089;27;45294;-67
2022/05/18 00:10:00;;;;;;;;;8.33;5.33;;;;;25.25;49.50;101526.41;5083285;27;45708;-67
2022/05/18 00:12:25;;;;;;;;;7.00;5.33;;;;;25.18;50.06;101532.03;5064939;28;47023;-67
2022/05/18 00:14:51;;;;;;;;;8.00;6.33;;;;;25.14;50.05;101536.31;5082136;28;45294;-67
2022/05/18 00:17:17;;;;;;;;;5.00;3.00;;;;;25.14;49.39;101539.09;5081662;27;45392;-67
2022/05/18 00:19:42;;;;;;;;;7.00;6.00;;;;;25.18;49.61;101543.16;5083176;27;45570;-67
2022/05/18 00:22:08;;;;;;;;;7.00;6.00;;;;;25.16;49.95;101534.19;5064353;27;45289;-67
2022/05/18 00:24:34;;;;;;;;;8.33;6.67;;;;;25.11;50.17;101536.78;5082810;28;45357;-67
2022/05/18 00:27:03;;;;;;;;;4.00;4.00;;;;;24.98;50.90;101542.44;5066112;28;45460;-68
2022/05/18 00:29:28;;;;;;;;;6.33;6.00;;;;;24.94;51.57;101535.63;5081322;28;45479;-67
2022/05/18 00:31:54;;;;;;;;;7.33;6.00;;;;;24.83;51.91;101539.94;5082813;27;45440;-67
2022/05/18 00:34:19;;;;;;;;;6.33;6.33;;;;;24.80;52.84;101557.06;5082274;27;45253;-67
2022/05/18 00:36:44;;;;;;;;;8.00;7.67;;;;;24.70;52.79;101549.19;5083173;27;45390;-67
2022/05/18 00:39:10;;;;;;;;;9.33;8.00;;;;;24.74;52.91;101564.38;5077648;27;45605;-67
2022/05/18 00:41:37;;;;;;;;;6.00;6.00;;;;;24.61;53.98;101570.00;5063863;28;45672;-67
2022/05/18 00:44:04;;;;;;;;;9.33;7.00;;;;;24.55;54.85;101583.88;5076578;28;45303;-67
2022/05/18 00:46:29;;;;;;;;;7.33;5.00;;;;;24.50;54.21;101567.91;5076887;27;45592;-67
2022/05/18 00:48:54;;;;;;;;;6.00;6.00;;;;;24.39;54.28;101565.81;5074560;27;45503;-68
2022/05/18 00:51:29;;;;;;;;;5.33;4.00;;;;;24.36;53.82;101571.78;5075893;27;46237;-67
2022/05/18 00:54:05;;;;;;;;;6.00;6.00;;;;;24.30;54.40;101570.75;5075234;27;45628;-68
2022/05/18 00:56:52;;;;;;;;;6.67;6.67;;;;;24.10;55.15;101577.41;5080672;28;45590;-68
2022/05/18 00:59:24;;;;;;;;;5.00;5.00;;;;;24.05;55.21;101576.13;5081988;27;45363;-67
2022/05/18 01:01:52;;;;;;;;;5.33;5.33;;;;;24.02;54.83;101584.91;5070845;27;46115;-67
2022/05/18 01:04:17;;;;;;;;;5.33;5.33;;;;;23.93;55.59;101586.19;5079601;28;45313;-67
2022/05/18 01:06:51;;;;;;;;;7.00;5.67;;;;;23.93;55.61;101588.97;5071480;27;45473;-67
2022/05/18 01:09:30;;;;;;;;;8.33;7.00;;;;;23.93;55.92;101590.88;5079850;28;45383;-69
2022/05/18 01:11:55;;;;;;;;;7.00;4.33;;;;;23.84;55.78;101590.25;5068833;27;45501;-67
2022/05/18 01:14:30;;;;;;;;;6.33;5.00;;;;;23.70;56.38;101594.09;5079641;28;45379;-67
2022/05/18 01:16:56;;;;;;;;;3.67;3.67;;;;;23.74;56.78;101595.41;5067927;28;45308;-67
2022/05/18 01:19:50;;;;;;;;;5.00;5.00;;;;;23.73;56.66;101601.16;5077472;27;45501;-67
2022/05/18 01:22:40;;;;;;;;;9.33;6.67;;;;;23.65;57.29;101597.53;5081138;28;46061;-67
2022/05/18 01:25:31;;;;;;;;;5.33;5.33;;;;;23.58;57.32;101596.69;5068036;28;45461;-67
2022/05/18 01:27:58;;;;;;;;;7.33;7.33;;;;;23.35;58.69;101603.66;5072078;27;45491;-67
2022/05/18 01:30:25;;;;;;;;;8.67;6.00;;;;;23.19;59.40;101608.53;5085406;27;45344;-67
2022/05/18 01:32:53;;;;;;;;;9.67;8.67;;;;;23.20;59.60;101620.50;5083153;28;47966;-67
2022/05/18 01:35:26;;;;;;;;;10.00;8.67;;;;;23.07;60.08;101607.47;5079313;27;45337;-67
2022/05/18 01:38:02;;;;;;;;;6.00;6.00;;;;;22.94;60.42;101601.03;5076613;27;45424;-67
2022/05/18 01:40:36;;;;;;;;;8.00;7.00;;;;;23.01;60.13;101610.22;5085559;27;45335;-67
2022/05/18 01:43:10;;;;;;;;;7.00;7.00;;;;;23.03;60.08;101606.16;5097556;27;47355;-68
2022/05/18 01:45:36;;;;;;;;;7.00;7.00;;;;;22.96;60.71;101610.81;5074214;28;45410;-67
2022/05/18 01:48:14;;;;;;;;;9.00;9.00;;;;;22.97;61.01;101608.91;5071792;28;45780;-68
2022/05/18 01:50:41;;;;;;;;;5.00;5.00;;;;;22.91;60.80;101627.25;5092707;27;45448;-68
2022/05/18 01:53:08;;;;;;;;;7.00;7.00;;;;;22.90;61.27;101625.53;5070391;27;46970;-68
2022/05/18 01:55:34;;;;;;;;;9.00;7.67;;;;;22.78;61.92;101621.66;5083327;28;45760;-68
2022/05/18 01:58:00;;;;;;;;;8.33;7.00;;;;;22.82;61.18;101626.56;5072041;27;45494;-67
2022/05/18 02:00:26;;;;;;;;;5.67;5.67;;;;;22.68;62.20;101626.69;5082381;27;45402;-68
2022/05/18 02:02:52;;;;;;;;;8.33;7.33;;;;;22.62;62.22;101627.50;5071364;27;45625;-67
2022/05/18 02:05:17;;;;;;;;;8.67;7.33;;;;;22.45;62.69;101630.63;5084736;27;45353;-67
2022/05/18 02:07:43;;;;;;;;;9.33;8.00;;;;;22.29;63.25;101635.63;5085497;27;45805;-67
2022/05/18 02:10:09;;;;;;;;;5.67;5.67;;;;;22.30;63.42;101651.19;5095555;27;45401;-68
2022/05/18 02:12:34;;;;;;;;;6.33;6.33;;;;;22.33;62.97;101653.56;5067139;28;48156;-67
2022/05/18 02:15:00;;;;;;;;;6.33;6.33;;;;;22.24;63.08;101657.53;5078289;27;45335;-67
2022/05/18 02:17:26;;;;;;;;;6.33;6.33;;;;;22.16;64.06;101650.25;5067714;27;45262;-67
2022/05/18 02:19:51;;;;;;;;;10.00;6.00;;;;;22.14;63.61;101647.69;5085012;27;45400;-67
2022/05/18 02:22:17;;;;;;;;;4.33;3.00;;;;;22.19;63.81;101654.53;5066183;27;45315;-67
2022/05/18 02:24:43;;;;;;;;;5.33;5.00;;;;;22.07;64.30;101660.63;5084688;27;45392;-67
2022/05/18 02:27:08;;;;;;;;;7.00;6.33;;;;;22.07;62.88;101659.75;5067604;27;46380;-67
2022/05/18 02:29:34;;;;;;;;;5.67;5.67;;;;;22.02;63.60;101668.69;5084264;27;45457;-67
2022/05/18 02:32:00;;;;;;;;;7.67;5.00;;;;;21.83;64.03;101662.97;5084531;27;45389;-67
2022/05/18 02:34:25;;;;;;;;;7.67;5.33;;;;;21.77;64.12;101672.06;5082361;27;45378;-67
2022/05/18 02:36:50;;;;;;;;;6.00;5.33;;;;;21.69;64.37;101682.22;5084712;28;45372;-67
2022/05/18 02:39:20;;;;;;;;;4.00;4.00;;;;;21.58;63.64;101674.44;5081291;28;45279;-67
2022/05/18 02:41:47;;;;;;;;;4.67;4.67;;;;;21.46;64.13;101681.56;5079741;28;47055;-67
2022/05/18 02:44:12;;;;;;;;;7.00;5.00;;;;;21.47;64.61;101693.47;5077290;28;45416;-67
2022/05/18 02:46:37;;;;;;;;;6.67;5.00;;;;;21.36;64.48;101697.59;5083169;28;45579;-67
2022/05/18 02:49:03;;;;;;;;;7.67;5.33;;;;;21.26;64.38;101684.09;5084149;28;45333;-68
2022/05/18 02:51:29;;;;;;;;;6.00;6.00;;;;;21.12;64.38;101684.09;5079377;27;45219;-67
2022/05/18 02:53:54;;;;;;;;;5.00;4.00;;;;;21.03;64.77;101671.47;5078324;28;45643;-67
2022/05/18 02:56:26;;;;;;;;;5.67;4.67;;;;;21.05;64.05;101699.72;5082406;28;45600;-67
2022/05/18 02:58:54;;;;;;;;;3.00;3.00;;;;;21.02;64.20;101711.19;5084046;27;45630;-67
2022/05/18 03:01:22;;;;;;;;;3.00;3.00;;;;;20.97;63.55;101704.31;5075788;27;46556;-67
2022/05/18 03:03:48;;;;;;;;;3.00;3.00;;;;;20.85;63.99;101705.88;5077171;28;45368;-68
2022/05/18 03:06:18;;;;;;;;;4.00;4.00;;;;;20.80;63.59;101702.84;5077075;28;45506;-67
2022/05/18 03:08:44;;;;;;;;;3.00;3.00;;;;;20.75;64.36;101697.03;5076839;27;45548;-67
2022/05/18 03:11:10;;;;;;;;;4.00;4.00;;;;;20.79;63.50;101705.78;5076082;27;45428;-67
2022/05/18 03:13:36;;;;;;;;;1.00;1.00;;;;;20.78;63.48;101698.56;5075128;28;45397;-67
2022/05/18 03:16:03;;;;;;;;;3.00;3.00;;;;;20.47;63.56;101702.38;5083864;27;45411;-67
2022/05/18 03:18:28;;;;;;;;;2.33;2.00;;;;;20.50;64.04;101706.66;5083566;28;45985;-67
2022/05/18 03:23:39;;;;;;;;;3.00;3.00;;;;;20.43;63.58;101708.47;5075633;28;45309;-67
2022/05/18 03:26:19;;;;;;;;;3.00;3.00;;;;;20.51;62.64;101713.91;5082894;28;45326;-67
2022/05/18 03:28:46;;;;;;;;;3.33;3.33;;;;;20.30;62.96;101716.53;5092168;27;45484;-67
2022/05/18 03:31:13;;;;;;;;;6.33;4.00;;;;;20.27;63.45;101725.16;5081947;28;47271;-66
2022/05/18 03:33:39;;;;;;;;;2.67;2.33;;;;;20.25;63.08;101719.81;5074125;27;45488;-66
2022/05/18 03:36:08;;;;;;;;;5.33;3.33;;;;;20.21;63.33;101721.25;5087151;27;45295;-67
2022/05/18 03:38:34;;;;;;;;;6.00;4.33;;;;;20.09;63.59;101725.53;5070512;28;45654;-67
2022/05/18 03:40:59;;;;;;;;;2.67;2.67;;;;;20.13;63.69;101737.91;5083729;27;45413;-69
2022/05/18 03:43:25;;;;;;;;;4.67;4.00;;;;;20.09;64.08;101740.16;5078654;27;45582;-69
2022/05/18 03:45:50;;;;;;;;;4.00;4.00;;;;;20.13;64.12;101740.66;5083808;27;45396;-69
2022/05/18 03:48:17;;;;;;;;;5.00;4.67;;;;;20.17;63.59;101731.81;5082458;27;46268;-68
2022/05/18 03:50:46;;;;;;;;;6.33;5.33;;;;;20.19;64.05;101751.78;5081127;28;47340;-69
2022/05/18 03:53:12;;;;;;;;;5.00;4.00;;;;;20.20;63.80;101745.25;5071897;28;45540;-68
2022/05/18 03:55:39;;;;;;;;;5.00;4.00;;;;;20.23;63.72;101755.06;5097995;27;45335;-68
2022/05/18 03:58:05;;;;;;;;;3.33;3.00;;;;;20.22;63.49;101764.38;5071278;27;45399;-70
2022/05/18 04:00:32;;;;;;;;;2.67;2.67;;;;;20.18;63.42;101769.41;5081063;27;45380;-68
2022/05/18 04:02:58;;;;;;;;;4.33;4.33;;;;;20.19;62.87;101768.34;5081062;27;45424;-67
2022/05/18 04:05:23;;;;;;;;;6.33;4.67;;;;;20.09;63.38;101770.50;5083317;27;45359;-68
2022/05/18 04:07:49;;;;;;;;;6.33;5.67;;;;;20.13;62.54;101766.34;5068151;28;45424;-68
2022/05/18 04:10:16;;;;;;;;;3.67;3.67;;;;;20.06;62.52;101765.38;5082451;27;45527;-67
2022/05/18 04:12:42;;;;;;;;;3.00;3.00;;;;;19.98;62.78;101767.34;5065331;28;45371;-67
2022/05/18 04:15:09;;;;;;;;;4.00;2.00;;;;;19.92;62.44;101785.50;5076213;27;45251;-67
2022/05/18 04:17:35;;;;;;;;;6.67;5.00;;;;;20.02;62.50;101783.31;5065901;28;45560;-68
2022/05/18 04:20:05;;;;;;;;;4.00;4.00;;;;;20.10;61.92;101774.13;5081936;27;45369;-68
2022/05/18 04:22:31;;;;;;;;;2.00;1.67;;;;;20.13;61.46;101782.03;5065001;28;45437;-67
2022/05/18 04:25:01;;;;;;;;;4.00;4.00;;;;;20.19;61.38;101776.63;5082783;27;45300;-68
2022/05/18 04:27:27;;;;;;;;;4.67;4.00;;;;;20.20;61.12;101777.50;5076869;27;45369;-67
2022/05/18 04:29:53;;;;;;;;;6.00;5.00;;;;;20.25;60.70;101774.16;5078904;27;46553;-67
2022/05/18 04:32:18;;;;;;;;;4.67;4.00;;;;;20.21;60.88;101773.69;5082011;27;45425;-67
2022/05/18 04:34:48;;;;;;;;;5.67;5.67;;;;;20.23;60.39;101777.13;5079715;28;45410;-67
2022/05/18 04:37:13;;;;;;;;;8.67;8.67;;;;;20.16;60.65;101782.50;5068594;28;45230;-67
2022/05/18 04:39:39;;;;;;;;;4.00;4.00;;;;;20.06;60.95;101781.94;5078153;28;45484;-67
2022/05/18 04:42:04;;;;;;;;;5.33;5.33;;;;;19.77;61.11;101782.69;5082769;28;45312;-67
2022/05/18 04:44:30;;;;;;;;;5.67;3.67;;;;;19.72;61.36;101787.03;5077259;27;45746;-67
2022/05/18 04:46:56;;;;;;;;;3.00;3.00;;;;;19.71;61.44;101791.69;5081295;28;45336;-67
2022/05/18 04:49:21;;;;;;;;;0.67;0.00;;;;;19.83;61.04;101794.88;5078327;27;47256;-69
2022/05/18 04:51:47;;;;;;;;;3.33;2.00;;;;;19.85;61.17;101806.56;5074437;27;45277;-68
2022/05/18 04:54:12;;;;;;;;;3.67;3.33;;;;;19.87;60.65;101814.69;5078565;28;45440;-67
2022/05/18 04:56:37;;;;;;;;;5.00;3.67;;;;;19.86;61.02;101807.44;5074345;27;45441;-67
2022/05/18 04:59:03;;;;;;;;;1.00;1.00;;;;;19.76;60.16;101816.81;5073349;27;48324;-67
2022/05/18 05:01:30;;;;;;;;;3.33;2.33;;;;;19.74;60.74;101818.00;5073858;28;45442;-67
2022/05/18 05:03:55;;;;;;;;;2.67;2.67;;;;;19.80;61.12;101809.00;5079434;28;45511;-67
2022/05/18 05:06:21;;;;;;;;;2.67;2.67;;;;;20.00;59.92;101810.25;5078035;28;45538;-67
2022/05/18 05:08:46;;;;;;;;;5.00;5.00;;;;;20.09;60.39;101816.56;5076847;27;46183;-68
2022/05/18 05:11:11;;;;;;;;;4.00;4.00;;;;;20.14;60.13;101822.38;5079550;28;45370;-67
2022/05/18 05:13:37;;;;;;;;;3.00;3.00;;;;;20.17;59.14;101828.38;5084970;27;45460;-69
2022/05/18 05:16:03;;;;;;;;;9.33;6.33;;;;;20.16;59.53;101832.19;5078057;28;45369;-68
2022/05/18 05:18:29;;;;;;;;;7.67;6.00;;;;;20.30;59.72;101819.50;5075123;27;46470;-68
2022/05/18 05:20:55;;;;;;;;;5.67;4.33;;;;;20.65;58.05;101826.25;5083128;28;45321;-68
2022/05/18 05:23:22;;;;;;;;;8.00;6.33;;;;;21.68;55.86;101832.63;5084615;28;45396;-68
2022/05/18 05:25:48;;;;;;;;;11.33;6.67;;;;;21.45;55.57;101834.66;5092620;27;45287;-68
2022/05/18 05:28:13;;;;;;;;;6.00;4.67;;;;;21.32;55.93;101838.13;5072661;27;46546;-68
2022/05/18 05:30:40;;;;;;;;;4.67;4.67;;;;;22.47;54.19;101836.22;5084287;28;45308;-70
2022/05/18 05:33:06;;;;;;;;;4.33;4.00;;;;;22.79;51.80;101845.84;5083177;27;45259;-68
2022/05/18 05:35:31;;;;;;;;;4.33;4.33;;;;;22.09;53.96;101849.47;5084905;27;45452;-68
2022/05/18 05:37:56;;;;;;;;;2.00;2.00;;;;;21.72;54.43;101852.44;5082841;27;46087;-68
2022/05/18 05:40:22;;;;;;;;;1.00;1.00;;;;;21.83;54.08;101856.63;5082426;28;45285;-68
2022/05/18 05:42:48;;;;;;;;;6.33;4.00;;;;;21.73;54.11;101852.25;5083802;27;45479;-68
2022/05/18 05:45:13;;;;;;;;;4.00;4.00;;;;;21.60;54.22;101856.75;5077152;27;45302;-68
2022/05/18 05:47:38;;;;;;;;;3.00;3.00;;;;;21.57;54.82;101857.13;5066906;28;46611;-67
2022/05/18 05:50:04;;;;;;;;;5.00;3.33;;;;;21.98;53.61;101865.75;5080438;27;46638;-67
2022/05/18 05:52:30;;;;;;;;;5.33;4.00;;;;;22.65;51.91;101860.63;5083171;28;45764;-67
2022/05/18 05:54:55;;;;;;;;;0.00;0.00;;;;;24.41;47.74;101863.66;5081774;27;45334;-67
2022/05/18 05:57:22;;;;;;;;;3.00;2.00;;;;;23.91;47.33;101868.66;5098328;27;46931;-68
2022/05/18 05:59:47;;;;;;;;;4.00;4.00;;;;;23.37;48.72;101868.63;5083846;27;45388;-69
2022/05/18 06:02:15;;;;;;;;;3.00;3.00;;;;;23.21;49.93;101866.19;5069487;27;45722;-69
2022/05/18 06:04:41;;;;;;;;;6.00;4.33;;;;;23.12;49.12;101859.94;5084272;28;45345;-67
2022/05/18 06:07:07;;;;;;;;;4.67;3.00;;;;;23.13;49.07;101869.13;5069553;27;45450;-68
2022/05/18 06:09:32;;;;;;;;;5.00;5.00;;;;;23.07;49.29;101869.94;5081358;28;45424;-68
2022/05/18 06:11:58;;;;;;;;;2.00;2.00;;;;;23.10;49.07;101875.06;5068578;27;45306;-68
2022/05/18 06:14:24;;;;;;;;;2.67;2.67;;;;;22.98;48.58;101876.69;5080817;28;45495;-68
2022/05/18 06:16:49;;;;;;;;;3.33;3.33;;;;;23.01;49.00;101877.16;5068964;27;46264;-68
2022/05/18 06:19:16;;;;;;;;;3.33;2.00;;;;;22.89;48.71;101879.63;5079514;28;45456;-68
2022/05/18 06:21:42;;;;;;;;;2.00;1.00;;;;;22.90;48.07;101877.72;5069340;27;45428;-68
2022/05/18 06:24:09;;;;;;;;;3.00;2.33;;;;;22.94;48.49;101886.50;5078466;28;45423;-68
2022/05/18 06:26:36;;;;;;;;;2.00;2.00;;;;;23.00;47.91;101885.69;5082066;27;45523;-69
2022/05/18 06:29:02;;;;;;;;;3.67;3.67;;;;;22.71;48.49;101884.78;5075456;27;45338;-69
2022/05/18 06:31:27;;;;;;;;;4.00;4.00;;;;;22.64;48.64;101883.03;5081309;28;45298;-69
2022/05/18 06:33:53;;;;;;;;;1.00;1.00;;;;;22.42;48.92;101888.59;5082956;28;45377;-69
2022/05/18 06:36:18;;;;;;;;;1.67;1.67;;;;;22.58;49.00;101886.56;5082844;27;45512;-69
2022/05/18 06:38:44;;;;;;;;;1.00;1.00;;;;;22.49;48.22;101886.72;5079044;27;45258;-69
2022/05/18 06:41:21;;;;;;;;;2.00;2.00;;;;;22.68;48.91;101881.53;5083765;28;45198;-69
2022/05/18 06:43:47;;;;;;;;;1.00;1.00;;;;;22.61;48.34;101886.19;5082953;28;45410;-68
2022/05/18 06:46:12;;;;;;;;;5.00;5.00;;;;;22.41;49.19;101886.00;5079637;28;45549;-69
2022/05/18 06:48:40;;;;;;;;;1.67;1.67;;;;;22.45;49.13;101877.09;5070091;27;45875;-68
2022/05/18 06:51:06;;;;;;;;;2.67;2.00;;;;;22.53;49.64;101885.25;5080700;27;45352;-68
2022/05/18 06:53:31;;;;;;;;;3.00;3.00;;;;;22.70;48.79;101885.84;5071727;27;45511;-69
2022/05/18 06:55:57;;;;;;;;;6.00;4.33;;;;;22.67;49.96;101885.38;5078931;28;46257;-68
2022/05/18 06:58:22;;;;;;;;;2.33;2.33;;;;;22.67;49.25;101882.59;5067734;27;45197;-68
2022/05/18 07:00:48;;;;;;;;;4.00;3.00;;;;;22.81;48.42;101870.59;5076624;27;45293;-68
2022/05/18 07:03:14;;;;;;;;;3.33;3.33;;;;;22.74;49.34;101880.78;5070421;28;45701;-67
2022/05/18 07:05:40;;;;;;;;;2.33;2.00;;;;;22.65;49.23;101888.34;5080594;27;46486;-67
2022/05/18 07:08:06;;;;;;;;;4.00;4.00;;;;;22.55;49.14;101886.97;5069165;27;45569;-70
2022/05/18 07:10:32;;;;;;;;;9.67;9.33;;;;;22.74;49.59;101884.41;5079311;27;45294;-67
2022/05/18 07:12:57;;;;;;;;;6.00;6.00;;;;;22.71;49.01;101878.38;5068313;28;45366;-68
2022/05/18 07:15:23;;;;;;;;;3.67;3.67;;;;;22.71;49.42;101875.63;5079414;27;46408;-67
2022/05/18 07:17:48;;;;;;;;;3.00;2.00;;;;;22.46;50.09;101880.72;5066915;28;45792;-68
2022/05/18 07:20:13;;;;;;;;;1.33;1.33;;;;;22.48;49.91;101881.38;5087826;27;45704;-68
2022/05/18 07:22:39;;;;;;;;;5.00;5.00;;;;;22.72;49.63;101880.09;5064197;28;45358;-67
2022/05/18 07:25:05;;;;;;;;;2.00;2.00;;;;;22.84;49.43;101881.28;5082453;27;45362;-68
2022/05/18 07:27:30;;;;;;;;;3.00;3.00;;;;;22.80;49.70;101871.66;5075524;28;45417;-68
2022/05/18 07:29:57;;;;;;;;;2.67;2.00;;;;;23.00;48.99;101875.44;5080803;27;45336;-68
2022/05/18 07:32:22;;;;;;;;;4.33;4.33;;;;;23.25;48.16;101875.81;5080654;28;45280;-68
2022/05/18 07:34:48;;;;;;;;;5.00;4.00;;;;;23.34;48.93;101876.50;5077687;27;45224;-68
2022/05/18 07:37:15;;;;;;;;;2.67;2.67;;;;;23.60;47.85;101873.88;5073875;28;45279;-68
2022/05/18 07:39:41;;;;;;;;;3.00;3.00;;;;;23.82;47.75;101880.16;5082096;28;45552;-67
2022/05/18 07:42:08;;;;;;;;;4.00;4.00;;;;;23.94;47.75;101884.06;5081588;28;45619;-68
2022/05/18 07:44:35;;;;;;;;;3.00;3.00;;;;;23.98;47.50;101888.09;5079177;27;46675;-67
2022/05/18 07:47:02;;;;;;;;;3.00;3.00;;;;;23.92;47.40;101888.94;5062121;28;45238;-67
2022/05/18 07:49:32;;;;;;;;;6.33;6.00;;;;;23.76;48.14;101880.97;5079826;27;45473;-67
2022/05/18 07:51:57;;;;;;;;;2.67;2.00;;;;;23.66;48.44;101882.25;5088766;27;45496;-68
2022/05/18 07:54:23;;;;;;;;;2.00;2.00;;;;;23.92;48.26;101887.03;5076926;28;46180;-68
2022/05/18 07:56:48;;;;;;;;;5.00;2.00;;;;;24.22;47.22;101892.25;5081315;28;45356;-68
2022/05/18 07:59:14;;;;;;;;;3.67;2.67;;;;;24.38;47.13;101887.19;5079077;27;45453;-68
2022/05/18 08:01:40;;;;;;;;;7.00;3.00;;;;;24.44;46.57;101882.69;5073397;28;45336;-68
2022/05/18 08:04:05;;;;;;;;;4.00;3.00;;;;;24.62;46.68;101882.06;5076854;28;46365;-68
2022/05/18 08:06:31;;;;;;;;;5.00;5.00;;;;;24.91;45.96;101864.13;5081744;28;45454;-68
2022/05/18 08:08:56;;;;;;;;;4.00;4.00;;;;;24.86;45.93;101874.97;5081818;27;45389;-68
2022/05/18 08:16:50;;;;;;;;;4.00;4.00;;;;;25.27;44.91;101870.03;5068222;28;45377;-69
2022/05/18 08:19:17;;;;;;;;;2.00;2.00;;;;;25.08;44.53;101868.16;5077687;27;45408;-68
2022/05/18 08:21:44;;;;;;;;;3.33;3.33;;;;;24.85;45.81;101865.78;5083257;27;45628;-68
2022/05/18 08:24:11;;;;;;;;;4.00;2.00;;;;;25.14;45.73;101870.91;5076555;28;45509;-68
2022/05/18 08:26:37;;;;;;;;;2.33;2.33;;;;;25.55;44.62;101869.72;5080735;27;45348;-68
2022/05/18 08:29:04;;;;;;;;;5.00;2.67;;;;;25.68;44.26;101866.06;5074065;27;45347;-68
2022/05/18 08:31:30;;;;;;;;;4.00;2.33;;;;;25.76;44.12;101852.75;5081624;28;45516;-68
2022/05/18 08:33:55;;;;;;;;;3.00;3.00;;;;;25.87;44.43;101870.66;5077779;27;45893;-68
2022/05/18 08:36:23;;;;;;;;;3.00;2.33;;;;;26.01;44.05;101855.59;5081383;27;45285;-69
2022/05/18 08:38:49;;;;;;;;;2.00;2.00;;;;;25.92;44.35;101862.53;5081300;27;45339;-68
2022/05/18 08:41:20;;;;;;;;;4.33;3.00;;;;;25.89;44.08;101857.38;5080232;27;45230;-67
2022/05/18 08:43:51;;;;;;;;;3.00;3.00;;;;;25.91;44.23;101861.66;5073477;28;45361;-69
2022/05/18 08:46:35;;;;;;;;;4.33;4.00;;;;;25.58;44.98;101864.59;5077624;28;45370;-69
2022/05/18 08:49:09;;;;;;;;;2.00;2.00;;;;;25.14;46.32;101858.94;5075966;28;45464;-70
2022/05/18 08:51:38;;;;;;;;;5.00;4.00;;;;;25.14;46.93;101862.56;5081654;28;45410;-66
2022/05/18 08:54:03;;;;;;;;;7.00;3.67;;;;;25.30;46.71;101857.59;5096295;27;47549;-67
2022/05/18 08:56:33;;;;;;;;;5.00;5.00;;;;;25.70;45.62;101862.00;5072098;28;45405;-67
2022/05/18 08:59:02;;;;;;;;;4.00;3.67;;;;;26.10;44.79;101854.25;5075567;28;45341;-67
2022/05/18 09:01:41;;;;;;;;;3.00;3.00;;;;;26.61;44.15;101850.47;5081092;28;45503;-67
2022/05/18 09:04:15;;;;;;;;;2.67;2.67;;;;;26.99;43.49;101854.00;5078329;28;46419;-68
2022/05/18 09:06:52;;;;;;;;;4.33;4.00;;;;;27.03;42.16;101849.66;5080179;28;45627;-67
2022/05/18 09:12:07;;;;;;;;;5.00;3.67;;;;;26.91;42.78;101850.66;5066828;28;45374;-67
2022/05/18 09:14:37;;;;;;;;;4.00;4.00;;;;;27.20;41.75;101844.34;5074813;28;45754;-67
2022/05/18 09:17:25;;;;;;;;;5.67;4.67;;;;;27.43;41.76;101850.09;5065920;27;45457;-67
2022/05/18 09:20:12;;;;;;;;;4.00;4.00;;;;;27.46;42.13;101844.03;5080285;27;45581;-68
2022/05/18 09:23:01;;;;;;;;;3.00;3.00;;;;;27.46;41.50;101843.19;5076284;27;45293;-68
2022/05/18 09:25:54;;;;;;;;;3.33;3.33;;;;;27.66;41.35;101841.03;5078741;28;45404;-69
2022/05/18 09:28:50;;;;;;;;;3.00;3.00;;;;;27.79;40.87;101848.38;5073480;28;45258;-69
2022/05/18 09:31:35;;;;;;;;;4.67;2.67;;;;;28.11;41.46;101835.88;5080389;28;45312;-69
2022/05/18 09:34:04;;;;;;;;;3.00;3.00;;;;;28.41;40.44;101833.06;5078497;28;45338;-70
2022/05/18 09:36:50;;;;;;;;;7.67;6.00;;;;;28.35;40.34;101836.78;5079701;28;48039;-70
2022/05/18 09:39:21;;;;;;;;;4.00;2.33;;;;;27.84;41.32;101829.81;5076816;28;45368;-69
2022/05/18 09:41:59;;;;;;;;;4.33;4.33;;;;;27.93;42.25;101832.25;5081427;27;45481;-69
2022/05/18 09:44:24;;;;;;;;;5.67;4.67;;;;;28.47;40.56;101834.91;5081506;28;45417;-69
2022/05/18 09:46:52;;;;;;;;;4.33;3.00;;;;;28.90;40.05;101817.81;5075141;27;45524;-68
2022/05/18 09:49:35;;;;;;;;;3.00;3.00;;;;;29.28;39.83;101814.47;5081623;27;45304;-69
2022/05/18 09:52:04;;;;;;;;;3.67;3.67;;;;;29.61;38.61;101813.78;5073758;27;45357;-68
2022/05/18 09:54:30;;;;;;;;;5.00;2.00;;;;;29.70;39.06;101819.84;5079349;28;45443;-68
2022/05/18 09:57:08;;;;;;;;;2.00;2.00;;;;;30.09;37.43;101827.38;5083798;28;45605;-69
2022/05/18 09:59:39;;;;;;;;;1.00;1.00;;;;;30.31;37.83;101819.09;5084062;27;45419;-69
2022/05/18 10:07:50;;;;;;;;;3.67;3.67;;;;;30.85;35.61;101803.44;5068918;28;45866;-68
2022/05/18 10:10:19;;;;;;;;;5.00;4.00;;;;;30.81;35.29;101807.88;5079422;28;45962;-69
2022/05/18 10:12:54;;;;;;;;;3.00;3.00;;;;;31.17;35.50;101811.25;5081450;28;45345;-69
2022/05/18 10:15:35;;;;;;;;;5.33;3.33;;;;;31.03;35.33;101804.28;5072648;28;45246;-68
2022/05/18 10:18:10;;;;;;;;;3.00;3.00;;;;;30.88;34.76;101802.94;5070289;27;45519;-68
2022/05/18 10:20:37;;;;;;;;;3.33;2.67;;;;;30.65;35.53;101808.75;5079531;27;45358;-68
2022/05/18 10:23:03;;;;;;;;;4.00;2.00;;;;;30.91;35.36;101798.75;5069148;28;45323;-69
2022/05/18 10:25:47;;;;;;;;;4.00;4.00;;;;;31.04;34.27;101777.91;5085088;27;45443;-68
2022/05/18 10:28:21;;;;;;;;;2.00;2.00;;;;;31.19;34.96;101787.41;5075875;27;47101;-68
2022/05/18 10:30:56;;;;;;;;;2.33;2.00;;;;;31.39;34.31;101786.81;5066260;28;45313;-68
2022/05/18 10:33:31;;;;;;;;;3.33;2.33;;;;;31.60;34.81;101788.78;5069428;28;45381;-68
2022/05/18 10:36:09;;;;;;;;;4.00;4.00;;;;;31.73;33.94;101781.91;5084990;27;45524;-68
2022/05/18 10:38:36;;;;;;;;;3.00;3.00;;;;;31.98;33.81;101778.53;5077502;28;46112;-68
2022/05/18 10:41:04;;;;;;;;;3.67;2.67;;;;;32.00;32.63;101776.31;5084698;27;45328;-68
2022/05/18 10:43:33;;;;;;;;;3.00;3.00;;;;;32.11;32.94;101778.09;5099667;27;45388;-68
2022/05/18 10:46:03;;;;;;;;;4.33;4.33;;;;;32.05;33.01;101762.28;5098892;27;45433;-68
2022/05/18 10:48:31;;;;;;;;;6.00;4.67;;;;;31.14;34.31;101755.59;5071868;27;46441;-68
2022/05/18 10:51:27;;;;;;;;;8.33;6.67;;;;;31.72;33.95;101757.72;5080562;27;45510;-68
2022/05/18 10:54:11;;;;;;;;;4.00;4.00;;;;;31.79;33.64;101760.31;5075432;28;45452;-68
2022/05/18 10:56:37;;;;;;;;;3.00;3.00;;;;;32.33;33.47;101755.53;5075191;28;45396;-68
2022/05/18 10:59:16;;;;;;;;;4.00;2.00;;;;;32.69;32.33;101745.41;5076137;28;46461;-69
2022/05/18 11:01:48;;;;;;;;;2.33;2.33;;;;;32.73;32.00;101746.56;5073557;28;45368;-68
2022/05/18 11:04:27;;;;;;;;;3.00;3.00;;;;;32.82;31.44;101747.72;5074326;28;45280;-68
2022/05/18 11:06:54;;;;;;;;;3.00;3.00;;;;;32.54;31.39;101748.09;5072090;27;45302;-69
2022/05/18 11:09:30;;;;;;;;;4.67;3.33;;;;;31.96;32.06;101741.41;5079506;28;46402;-70
2022/05/18 11:12:06;;;;;;;;;3.00;3.00;;;;;31.61;31.69;101745.53;5070136;28;45361;-68
2022/05/18 11:14:38;;;;;;;;;3.67;2.00;;;;;31.54;31.53;101744.03;5081404;28;45514;-68
2022/05/18 11:17:18;;;;;;;;;2.00;2.00;;;;;31.61;32.40;101747.50;5068285;27;45256;-69
2022/05/18 11:20:07;;;;;;;;;2.00;2.00;;;;;32.34;30.90;101749.63;5081950;27;48334;-68
2022/05/18 11:22:35;;;;;;;;;2.00;2.00;;;;;32.80;30.28;101741.56;5077368;28;45570;-68
2022/05/18 11:25:12;;;;;;;;;3.00;3.00;;;;;32.41;31.66;101753.06;5080697;28;46053;-68
2022/05/18 11:28:13;;;;;;;;;5.00;3.67;;;;;32.83;30.25;101746.63;5092256;27;47936;-68
2022/05/18 11:30:45;;;;;;;;;2.00;2.00;;;;;33.00;31.15;101743.63;5042619;28;46400;-68
2022/05/18 11:33:29;;;;;;;;;2.00;2.00;;;;;33.40;31.02;101740.16;5073096;28;45463;-68
2022/05/18 11:35:57;;;;;;;;;4.00;4.00;;;;;33.29;30.60;101735.63;5072530;28;45480;-68
2022/05/18 11:38:28;;;;;;;;;4.00;4.00;;;;;33.29;29.53;101733.66;5072120;28;45301;-68
2022/05/18 11:41:14;;;;;;;;;2.67;2.67;;;;;33.85;29.95;101742.25;5083778;27;46393;-68
2022/05/18 11:43:51;;;;;;;;;3.00;3.00;;;;;34.35;28.49;101733.84;5082938;28;45451;-68
2022/05/18 11:46:29;;;;;;;;;3.33;2.00;;;;;34.70;28.92;101730.09;5079475;27;45305;-68
2022/05/18 11:49:15;;;;;;;;;2.67;2.67;;;;;34.79;28.16;101721.09;5076363;28;45499;-66